createdAt,value
2022-12-07T00:00:33.820Z,67.19
2022-12-07T00:01:33.840Z,68.96
2022-12-07T00:02:33.885Z,69.61
2022-12-07T00:03:33.915Z,68.48
2022-12-07T00:04:33.785Z,68.32
2022-12-07T00:05:33.764Z,67.51
2022-12-07T00:06:33.770Z,66.06
2022-12-07T00:07:33.828Z,70.25
2022-12-07T00:08:33.741Z,64.94
2022-12-07T00:10:06.138Z,65.42
2022-12-07T00:10:33.714Z,65.58
2022-12-07T00:11:33.723Z,68.16
2022-12-07T00:12:33.723Z,66.39
2022-12-07T00:13:33.695Z,67.19
2022-12-07T00:14:33.683Z,65.58
2022-12-07T00:15:33.680Z,64.94
2022-12-07T00:16:33.708Z,66.23
2022-12-07T00:17:33.677Z,66.87
2022-12-07T00:18:33.657Z,63.65
2022-12-07T00:19:33.642Z,66.71
2022-12-07T00:20:33.631Z,64.94
2022-12-07T00:21:33.626Z,65.58
2022-12-07T00:22:33.622Z,64.13
2022-12-07T00:23:33.610Z,66.06
2022-12-07T00:24:33.601Z,65.42
2022-12-07T00:25:33.592Z,66.06
2022-12-07T00:26:33.596Z,65.26
2022-12-07T00:27:33.595Z,66.87
2022-12-07T00:28:33.577Z,66.39
2022-12-07T00:29:33.551Z,68.64
2022-12-07T00:30:34.539Z,65.26
2022-12-07T00:31:33.590Z,65.26
2022-12-07T00:32:33.553Z,69.29
2022-12-07T00:33:33.527Z,66.55
2022-12-07T00:34:33.508Z,67.84
2022-12-07T00:35:33.511Z,67.03
2022-12-07T00:36:33.501Z,65.10
2022-12-07T00:37:33.499Z,70.25
2022-12-07T00:38:34.481Z,68.32
2022-12-07T00:39:33.474Z,67.03
2022-12-07T00:40:33.474Z,68.80
2022-12-07T00:41:33.460Z,66.23
2022-12-07T00:42:33.481Z,65.74
2022-12-07T00:43:33.441Z,66.06
2022-12-07T00:44:33.445Z,65.74
2022-12-07T00:45:33.511Z,67.51
2022-12-07T00:46:33.482Z,68.00
2022-12-07T00:47:33.430Z,67.03
2022-12-07T00:48:33.419Z,67.35
2022-12-07T00:49:33.396Z,67.35
2022-12-07T00:50:33.379Z,69.29
2022-12-07T00:51:33.378Z,66.06
2022-12-07T00:52:33.391Z,68.32
2022-12-07T00:53:36.760Z,67.03
2022-12-07T00:54:34.344Z,69.29
2022-12-07T00:55:33.337Z,67.51
2022-12-07T00:56:33.332Z,70.42
2022-12-07T00:57:33.352Z,66.39
2022-12-07T00:58:33.316Z,68.80
2022-12-07T00:59:33.308Z,67.35
2022-12-07T01:00:33.301Z,70.42
2022-12-07T01:01:33.344Z,66.55
2022-12-07T01:02:33.288Z,68.32
2022-12-07T01:03:33.360Z,68.80
2022-12-07T01:04:33.271Z,69.61
2022-12-07T01:05:33.264Z,68.16
2022-12-07T01:06:33.258Z,68.64
2022-12-07T01:07:33.269Z,67.51
2022-12-07T01:08:33.238Z,68.32
2022-12-07T01:09:33.230Z,68.16
2022-12-07T01:10:33.208Z,68.16
2022-12-07T01:11:33.213Z,69.77
2022-12-07T01:12:33.225Z,66.71
2022-12-07T01:13:33.199Z,67.84
2022-12-07T01:14:33.178Z,67.68
2022-12-07T01:15:33.181Z,69.29
2022-12-07T01:16:33.279Z,68.32
2022-12-07T01:17:33.183Z,68.96
2022-12-07T01:18:33.148Z,68.64
2022-12-07T01:19:33.148Z,66.87
2022-12-07T01:20:33.138Z,66.87
2022-12-07T01:21:33.137Z,68.64
2022-12-07T01:22:33.140Z,68.64
2022-12-07T01:23:33.119Z,69.45
2022-12-07T01:24:33.114Z,67.35
2022-12-07T01:25:33.098Z,67.51
2022-12-07T01:26:33.081Z,69.13
2022-12-07T01:27:33.101Z,69.13
2022-12-07T01:28:33.070Z,70.25
2022-12-07T01:29:33.064Z,69.77
2022-12-07T01:30:33.071Z,66.87
2022-12-07T01:31:33.044Z,68.80
2022-12-07T01:32:33.054Z,67.51
2022-12-07T01:33:33.027Z,66.06
2022-12-07T01:34:33.798Z,67.19
2022-12-07T01:35:33.010Z,68.32
2022-12-07T01:36:33.026Z,68.32
2022-12-07T01:37:33.020Z,67.51
2022-12-07T01:38:32.979Z,68.00
2022-12-07T01:39:32.977Z,69.29
2022-12-07T01:40:32.975Z,68.80
2022-12-07T01:41:32.965Z,66.71
2022-12-07T01:42:32.974Z,68.80
2022-12-07T01:43:32.951Z,66.71
2022-12-07T01:44:32.955Z,70.42
2022-12-07T01:45:32.927Z,67.51
2022-12-07T01:46:32.976Z,69.61
2022-12-07T01:47:32.931Z,69.77
2022-12-07T01:48:32.904Z,68.96
2022-12-07T01:49:32.896Z,67.84
2022-12-07T01:50:32.894Z,66.06
2022-12-07T01:51:32.897Z,66.23
2022-12-07T01:52:32.885Z,67.19
2022-12-07T01:53:32.856Z,65.58
2022-12-07T01:54:32.855Z,68.00
2022-12-07T01:55:32.894Z,68.00
2022-12-07T01:56:32.892Z,68.16
2022-12-07T01:57:32.849Z,71.22
2022-12-07T01:58:32.828Z,68.96
2022-12-07T01:59:32.830Z,69.61
2022-12-07T02:00:32.822Z,70.42
2022-12-07T02:01:32.854Z,69.45
2022-12-07T02:02:32.917Z,70.42
2022-12-07T02:03:32.789Z,70.90
2022-12-07T02:04:32.776Z,71.54
2022-12-07T02:05:32.757Z,69.13
2022-12-07T02:06:32.739Z,72.99
2022-12-07T02:07:32.760Z,70.42
2022-12-07T02:08:32.736Z,70.25
2022-12-07T02:09:32.727Z,69.29
2022-12-07T02:10:32.707Z,69.29
2022-12-07T02:11:32.710Z,69.29
2022-12-07T02:12:32.723Z,68.32
2022-12-07T02:13:32.699Z,68.16
2022-12-07T02:14:32.676Z,70.74
2022-12-07T02:15:32.714Z,70.42
2022-12-07T02:16:32.669Z,69.93
2022-12-07T02:17:32.681Z,70.42
2022-12-07T02:18:32.652Z,70.58
2022-12-07T02:19:32.647Z,71.06
2022-12-07T02:20:32.632Z,71.22
2022-12-07T02:21:32.628Z,70.42
2022-12-07T02:22:32.641Z,70.09
2022-12-07T02:23:32.607Z,70.58
2022-12-07T02:24:32.602Z,69.93
2022-12-07T02:25:32.588Z,70.74
2022-12-07T02:26:32.581Z,70.25
2022-12-07T02:27:32.591Z,71.22
2022-12-07T02:28:32.579Z,69.77
2022-12-07T02:29:32.567Z,69.13
2022-12-07T02:30:32.550Z,71.22
2022-12-07T02:31:32.631Z,69.29
2022-12-07T02:32:32.544Z,71.22
2022-12-07T02:33:32.528Z,71.87
2022-12-07T02:34:32.514Z,70.25
2022-12-07T02:35:32.513Z,69.93
2022-12-07T02:36:32.499Z,71.70
2022-12-07T02:37:32.505Z,68.96
2022-12-07T02:38:32.482Z,67.51
2022-12-07T02:39:32.470Z,70.42
2022-12-07T02:40:32.464Z,68.80
2022-12-07T02:41:32.464Z,69.93
2022-12-07T02:42:32.468Z,70.42
2022-12-07T02:43:32.461Z,69.61
2022-12-07T02:44:32.459Z,69.77
2022-12-07T02:45:32.453Z,70.74
2022-12-07T02:46:32.525Z,71.87
2022-12-07T02:47:32.415Z,70.42
2022-12-07T02:48:32.412Z,71.38
2022-12-07T02:49:32.386Z,73.80
2022-12-07T02:50:32.414Z,70.58
2022-12-07T02:51:32.409Z,70.09
2022-12-07T02:52:32.420Z,70.25
2022-12-07T02:53:32.361Z,70.42
2022-12-07T02:54:32.357Z,71.70
2022-12-07T02:55:32.343Z,72.99
2022-12-07T02:56:32.343Z,71.54
2022-12-07T02:57:32.372Z,70.74
2022-12-07T02:58:32.349Z,70.09
2022-12-07T02:59:32.353Z,72.51
2022-12-07T03:00:32.304Z,70.09
2022-12-07T03:01:32.351Z,70.90
2022-12-07T03:02:32.385Z,71.06
2022-12-07T03:03:32.306Z,71.22
2022-12-07T03:04:32.298Z,71.22
2022-12-07T03:05:32.292Z,71.22
2022-12-07T03:06:32.274Z,71.54
2022-12-07T03:07:32.298Z,73.32
2022-12-07T03:08:32.275Z,70.74
2022-12-07T03:09:32.229Z,72.03
2022-12-07T03:10:32.275Z,72.35
2022-12-07T03:11:32.232Z,70.90
2022-12-07T03:12:32.342Z,72.51
2022-12-07T03:13:32.255Z,71.87
2022-12-07T03:14:32.244Z,71.87
2022-12-07T03:15:32.261Z,71.38
2022-12-07T03:16:32.204Z,71.22
2022-12-07T03:17:32.213Z,69.61
2022-12-07T03:18:32.185Z,70.42
2022-12-07T03:19:32.173Z,71.54
2022-12-07T03:20:32.199Z,71.22
2022-12-07T03:21:32.138Z,68.64
2022-12-07T03:22:32.132Z,70.74
2022-12-07T03:23:32.205Z,71.87
2022-12-07T03:24:32.150Z,70.90
2022-12-07T03:25:32.135Z,69.93
2022-12-07T03:26:32.140Z,70.90
2022-12-07T03:27:32.782Z,72.03
2022-12-07T03:28:32.123Z,72.35
2022-12-07T03:29:32.115Z,71.87
2022-12-07T03:30:32.055Z,73.32
2022-12-07T03:31:32.124Z,73.32
2022-12-07T03:32:32.063Z,72.35
2022-12-07T03:33:32.047Z,72.83
2022-12-07T03:34:32.056Z,72.83
2022-12-07T03:35:32.059Z,72.51
2022-12-07T03:36:31.995Z,73.80
2022-12-07T03:37:32.076Z,73.32
2022-12-07T03:38:31.983Z,75.09
2022-12-07T03:39:31.978Z,74.77
2022-12-07T03:40:31.963Z,74.12
2022-12-07T03:41:31.998Z,73.64
2022-12-07T03:42:32.017Z,72.67
2022-12-07T03:43:31.932Z,76.86
2022-12-07T03:44:32.009Z,76.38
2022-12-07T03:45:31.953Z,74.44
2022-12-07T03:46:31.943Z,72.67
2022-12-07T03:47:31.917Z,73.80
2022-12-07T03:48:31.887Z,74.28
2022-12-07T03:49:31.882Z,72.51
2022-12-07T03:50:31.869Z,74.77
2022-12-07T03:51:31.863Z,72.99
2022-12-07T03:52:31.876Z,72.83
2022-12-07T03:53:31.855Z,73.15
2022-12-07T03:54:31.824Z,74.28
2022-12-07T03:55:31.821Z,74.28
2022-12-07T03:56:31.818Z,74.93
2022-12-07T03:57:31.855Z,75.73
2022-12-07T03:58:31.793Z,74.28
2022-12-07T03:59:32.787Z,74.28
2022-12-07T04:00:31.778Z,75.09
2022-12-07T04:01:31.843Z,75.25
2022-12-07T04:02:31.832Z,73.15
2022-12-07T04:03:31.760Z,73.48
2022-12-07T04:04:31.749Z,73.32
2022-12-07T04:05:31.748Z,74.77
2022-12-07T04:06:31.758Z,74.12
2022-12-07T04:07:31.742Z,74.12
2022-12-07T04:08:31.721Z,73.32
2022-12-07T04:09:31.712Z,74.28
2022-12-07T04:10:31.679Z,72.99
2022-12-07T04:11:31.683Z,74.93
2022-12-07T04:12:31.736Z,73.48
2022-12-07T04:13:31.715Z,73.32
2022-12-07T04:14:32.286Z,73.15
2022-12-07T04:15:31.646Z,73.80
2022-12-07T04:16:31.741Z,72.03
2022-12-07T04:17:31.640Z,73.96
2022-12-07T04:18:31.702Z,73.32
2022-12-07T04:19:31.623Z,75.89
2022-12-07T04:20:31.662Z,73.64
2022-12-07T04:21:31.662Z,74.77
2022-12-07T04:22:31.879Z,73.32
2022-12-07T04:23:31.580Z,72.83
2022-12-07T04:24:31.578Z,72.19
2022-12-07T04:25:31.581Z,73.96
2022-12-07T04:26:31.550Z,71.54
2022-12-07T04:27:31.621Z,73.96
2022-12-07T04:28:31.625Z,73.48
2022-12-07T04:29:31.591Z,73.80
2022-12-07T04:30:32.296Z,73.15
2022-12-07T04:31:31.580Z,72.99
2022-12-07T04:32:32.281Z,72.67
2022-12-07T04:33:31.532Z,71.70
2022-12-07T04:34:31.493Z,72.35
2022-12-07T04:35:31.530Z,74.12
2022-12-07T04:36:32.456Z,74.60
2022-12-07T04:37:31.576Z,72.83
2022-12-07T04:38:32.259Z,72.51
2022-12-07T04:39:31.521Z,73.32
2022-12-07T04:40:31.499Z,73.48
2022-12-07T04:41:32.302Z,72.35
2022-12-07T04:42:31.527Z,72.83
2022-12-07T04:43:31.474Z,71.87
2022-12-07T04:44:31.501Z,70.42
2022-12-07T04:45:32.268Z,72.83
2022-12-07T04:46:31.522Z,75.25
2022-12-07T04:47:31.447Z,73.48
2022-12-07T04:48:31.472Z,74.28
2022-12-07T04:49:31.444Z,74.12
2022-12-07T04:50:31.429Z,73.64
2022-12-07T04:51:32.275Z,71.38
2022-12-07T04:52:31.463Z,72.99
2022-12-07T04:53:31.433Z,73.15
2022-12-07T04:54:31.287Z,72.83
2022-12-07T04:55:31.276Z,74.93
2022-12-07T04:56:31.264Z,73.32
2022-12-07T04:57:31.293Z,74.44
2022-12-07T04:58:32.249Z,75.41
2022-12-07T04:59:31.367Z,74.60
2022-12-07T05:00:31.458Z,74.28
2022-12-07T05:01:31.212Z,75.25
2022-12-07T05:02:31.257Z,74.77
2022-12-07T05:03:31.224Z,74.60
2022-12-07T05:04:31.201Z,74.93
2022-12-07T05:05:31.269Z,74.44
2022-12-07T05:06:31.183Z,72.99
2022-12-07T05:07:31.173Z,74.12
2022-12-07T05:08:31.180Z,76.05
2022-12-07T05:09:31.153Z,75.57
2022-12-07T05:10:31.135Z,73.32
2022-12-07T05:11:31.153Z,74.28
2022-12-07T05:12:31.129Z,74.12
2022-12-07T05:13:31.141Z,73.48
2022-12-07T05:14:31.097Z,73.64
2022-12-07T05:15:31.107Z,74.12
2022-12-07T05:16:31.182Z,73.48
2022-12-07T05:17:31.075Z,73.96
2022-12-07T05:18:31.085Z,73.96
2022-12-07T05:19:31.060Z,75.89
2022-12-07T05:20:31.055Z,75.25
2022-12-07T05:21:31.036Z,75.41
2022-12-07T05:22:31.025Z,72.99
2022-12-07T05:23:31.047Z,74.28
2022-12-07T05:24:31.020Z,75.25
2022-12-07T05:25:31.009Z,75.89
2022-12-07T05:26:30.986Z,74.93
2022-12-07T05:27:30.998Z,75.41
2022-12-07T05:28:31.005Z,75.73
2022-12-07T05:29:30.977Z,75.89
2022-12-07T05:30:30.964Z,76.70
2022-12-07T05:31:30.980Z,75.41
2022-12-07T05:32:30.952Z,74.28
2022-12-07T05:33:30.962Z,74.44
2022-12-07T05:34:30.924Z,73.96
2022-12-07T05:35:30.924Z,75.09
2022-12-07T05:36:30.913Z,74.77
2022-12-07T05:37:30.904Z,75.57
2022-12-07T05:38:30.911Z,75.25
2022-12-07T05:39:30.882Z,74.93
2022-12-07T05:40:30.876Z,75.25
2022-12-07T05:41:30.861Z,75.09
2022-12-07T05:42:30.845Z,75.09
2022-12-07T05:43:30.874Z,75.25
2022-12-07T05:44:30.839Z,76.05
2022-12-07T05:45:30.913Z,75.73
2022-12-07T05:46:30.820Z,75.25
2022-12-07T05:47:30.818Z,75.09
2022-12-07T05:48:30.825Z,74.77
2022-12-07T05:49:30.794Z,75.41
2022-12-07T05:50:30.788Z,75.09
2022-12-07T05:51:30.783Z,75.25
2022-12-07T05:52:30.768Z,75.73
2022-12-07T05:53:30.775Z,74.77
2022-12-07T05:54:30.736Z,75.57
2022-12-07T05:55:30.778Z,75.41
2022-12-07T05:56:30.741Z,75.09
2022-12-07T05:57:30.728Z,74.93
2022-12-07T05:58:30.734Z,74.77
2022-12-07T05:59:30.706Z,75.89
2022-12-07T06:00:30.695Z,73.80
2022-12-07T06:01:30.673Z,76.05
2022-12-07T06:02:31.745Z,75.41
2022-12-07T06:03:30.743Z,75.09
2022-12-07T06:04:30.660Z,75.09
2022-12-07T06:05:30.657Z,74.77
2022-12-07T06:06:30.678Z,74.77
2022-12-07T06:07:30.626Z,73.96
2022-12-07T06:08:30.643Z,74.93
2022-12-07T06:09:30.613Z,73.64
2022-12-07T06:10:56.490Z,75.09
2022-12-07T06:11:30.583Z,74.77
2022-12-07T06:12:30.565Z,73.96
2022-12-07T06:13:30.583Z,75.41
2022-12-07T06:14:30.556Z,75.73
2022-12-07T06:15:30.542Z,74.77
2022-12-07T06:16:30.608Z,73.32
2022-12-07T06:17:30.532Z,73.32
2022-12-07T06:18:30.577Z,74.93
2022-12-07T06:19:30.517Z,75.41
2022-12-07T06:20:30.498Z,74.77
2022-12-07T06:21:30.488Z,75.09
2022-12-07T06:22:30.485Z,75.09
2022-12-07T06:23:30.494Z,75.09
2022-12-07T06:24:30.455Z,75.41
2022-12-07T06:25:30.447Z,75.09
2022-12-07T06:26:30.439Z,74.93
2022-12-07T06:27:30.436Z,74.44
2022-12-07T06:28:30.444Z,75.73
2022-12-07T06:29:30.414Z,75.09
2022-12-07T06:30:30.410Z,74.93
2022-12-07T06:31:30.438Z,75.25
2022-12-07T06:32:30.390Z,75.09
2022-12-07T06:33:30.396Z,75.73
2022-12-07T06:34:30.360Z,76.70
2022-12-07T06:35:30.346Z,77.67
2022-12-07T06:36:30.386Z,75.73
2022-12-07T06:37:30.345Z,75.41
2022-12-07T06:38:30.344Z,75.73
2022-12-07T06:39:30.324Z,76.05
2022-12-07T06:40:30.298Z,76.22
2022-12-07T06:41:30.312Z,77.02
2022-12-07T06:42:30.284Z,75.89
2022-12-07T06:43:30.293Z,76.05
2022-12-07T06:44:30.270Z,77.99
2022-12-07T06:45:30.286Z,76.54
2022-12-07T06:46:30.312Z,76.22
2022-12-07T06:47:46.221Z,75.57
2022-12-07T06:48:32.243Z,76.38
2022-12-07T06:49:30.224Z,75.41
2022-12-07T06:50:30.214Z,75.41
2022-12-07T06:51:30.225Z,75.41
2022-12-07T06:52:30.199Z,75.09
2022-12-07T06:53:30.192Z,74.77
2022-12-07T06:54:30.175Z,75.73
2022-12-07T06:55:30.195Z,75.09
2022-12-07T06:56:30.191Z,75.09
2022-12-07T06:57:30.185Z,75.73
2022-12-07T06:58:30.157Z,74.44
2022-12-07T06:59:30.117Z,75.89
2022-12-07T07:00:30.165Z,74.93
2022-12-07T07:01:30.170Z,75.89
2022-12-07T07:02:30.195Z,76.05
2022-12-07T07:03:30.103Z,76.22
2022-12-07T07:04:30.074Z,75.09
2022-12-07T07:05:30.082Z,75.89
2022-12-07T07:06:30.071Z,75.89
2022-12-07T07:07:30.059Z,76.38
2022-12-07T07:08:30.122Z,75.73
2022-12-07T07:09:30.056Z,77.18
2022-12-07T07:10:30.020Z,75.09
2022-12-07T07:11:30.025Z,76.22
2022-12-07T07:12:30.082Z,74.77
2022-12-07T07:13:30.008Z,75.25
2022-12-07T07:14:29.983Z,77.18
2022-12-07T07:15:29.989Z,77.50
2022-12-07T07:16:30.025Z,75.57
2022-12-07T07:17:30.009Z,75.25
2022-12-07T07:18:29.964Z,77.34
2022-12-07T07:19:29.952Z,76.38
2022-12-07T07:20:29.933Z,75.73
2022-12-07T07:21:29.918Z,76.38
2022-12-07T07:22:29.949Z,76.05
2022-12-07T07:23:29.929Z,74.60
2022-12-07T07:24:29.951Z,74.60
2022-12-07T07:25:29.907Z,75.73
2022-12-07T07:26:29.890Z,74.93
2022-12-07T07:27:29.940Z,76.70
2022-12-07T07:28:29.900Z,77.34
2022-12-07T07:29:29.983Z,75.25
2022-12-07T07:30:30.985Z,75.57
2022-12-07T07:31:29.861Z,75.25
2022-12-07T07:32:29.878Z,75.25
2022-12-07T07:33:29.833Z,75.73
2022-12-07T07:34:29.812Z,75.25
2022-12-07T07:35:30.949Z,74.93
2022-12-07T07:36:29.828Z,75.25
2022-12-07T07:37:29.804Z,76.05
2022-12-07T07:38:29.884Z,76.22
2022-12-07T07:39:29.814Z,75.57
2022-12-07T07:40:29.773Z,75.89
2022-12-07T07:41:29.766Z,75.73
2022-12-07T07:42:29.777Z,74.60
2022-12-07T07:43:29.895Z,75.89
2022-12-07T07:44:34.759Z,76.22
2022-12-07T07:45:31.818Z,75.41
2022-12-07T07:46:29.809Z,75.73
2022-12-07T07:47:29.739Z,74.77
2022-12-07T07:48:29.836Z,75.41
2022-12-07T07:49:29.736Z,75.25
2022-12-07T07:50:30.164Z,74.93
2022-12-07T07:51:29.767Z,75.73
2022-12-07T07:52:29.732Z,75.73
2022-12-07T07:53:29.719Z,74.60
2022-12-07T07:54:29.724Z,72.51
2022-12-07T07:55:29.684Z,73.32
2022-12-07T07:56:29.674Z,74.60
2022-12-07T07:57:29.663Z,73.48
2022-12-07T07:58:29.703Z,72.99
2022-12-07T07:59:29.678Z,73.15
2022-12-07T08:00:29.683Z,73.48
2022-12-07T08:01:31.314Z,72.99
2022-12-07T08:02:29.709Z,73.15
2022-12-07T08:03:29.620Z,73.15
2022-12-07T08:04:29.716Z,73.48
2022-12-07T08:05:29.696Z,72.03
2022-12-07T08:06:32.355Z,71.06
2022-12-07T08:07:30.504Z,72.99
2022-12-07T08:08:29.630Z,72.99
2022-12-07T08:09:29.562Z,73.80
2022-12-07T08:10:29.570Z,73.80
2022-12-07T08:11:29.551Z,72.99
2022-12-07T08:12:29.522Z,73.80
2022-12-07T08:13:31.557Z,75.09
2022-12-07T08:14:29.514Z,73.96
2022-12-07T08:15:29.484Z,77.50
2022-12-07T08:16:29.570Z,72.83
2022-12-07T08:17:29.495Z,75.73
2022-12-07T08:18:29.502Z,74.77
2022-12-07T08:19:29.497Z,74.60
2022-12-07T08:20:29.514Z,74.93
2022-12-07T08:21:29.369Z,73.48
2022-12-07T08:22:29.366Z,75.57
2022-12-07T08:23:34.874Z,75.73
2022-12-07T08:24:31.365Z,74.12
2022-12-07T08:25:29.483Z,74.44
2022-12-07T08:26:29.413Z,75.09
2022-12-07T08:27:29.363Z,76.05
2022-12-07T08:28:29.434Z,75.73
2022-12-07T08:29:29.396Z,75.73
2022-12-07T08:30:29.301Z,75.89
2022-12-07T08:31:29.373Z,74.93
2022-12-07T08:32:29.351Z,74.28
2022-12-07T08:33:29.375Z,75.25
2022-12-07T08:34:29.426Z,76.05
2022-12-07T08:35:29.236Z,76.54
2022-12-07T08:36:29.231Z,75.89
2022-12-07T08:37:29.245Z,74.28
2022-12-07T08:38:32.015Z,74.60
2022-12-07T08:39:31.770Z,76.22
2022-12-07T08:40:30.184Z,75.73
2022-12-07T08:41:29.174Z,74.77
2022-12-07T08:42:29.166Z,74.93
2022-12-07T08:43:29.158Z,74.93
2022-12-07T08:44:29.172Z,74.28
2022-12-07T08:45:29.155Z,73.15
2022-12-07T08:46:29.170Z,74.60
2022-12-07T08:47:29.128Z,75.57
2022-12-07T08:48:29.123Z,75.09
2022-12-07T08:49:29.132Z,74.12
2022-12-07T08:50:29.081Z,73.80
2022-12-07T08:51:30.089Z,73.96
2022-12-07T08:52:29.088Z,73.80
2022-12-07T08:53:29.065Z,74.60
2022-12-07T08:54:29.072Z,72.83
2022-12-07T08:55:29.080Z,74.12
2022-12-07T08:56:29.041Z,75.25
2022-12-07T08:57:29.058Z,73.15
2022-12-07T08:58:29.026Z,73.48
2022-12-07T08:59:29.037Z,74.93
2022-12-07T09:00:29.000Z,74.28
2022-12-07T09:01:29.042Z,75.41
2022-12-07T09:02:28.978Z,75.25
2022-12-07T09:03:28.973Z,75.25
2022-12-07T09:04:29.083Z,74.77
2022-12-07T09:05:28.995Z,74.77
2022-12-07T09:06:29.087Z,75.57
2022-12-07T09:07:28.943Z,75.73
2022-12-07T09:08:28.996Z,75.41
2022-12-07T09:09:28.927Z,74.77
2022-12-07T09:10:28.910Z,75.57
2022-12-07T09:11:29.906Z,74.77
2022-12-07T09:12:28.887Z,76.54
2022-12-07T09:13:28.875Z,74.77
2022-12-07T09:14:28.913Z,74.93
2022-12-07T09:15:28.861Z,74.93
2022-12-07T09:16:28.945Z,73.96
2022-12-07T09:17:28.860Z,73.64
2022-12-07T09:18:28.898Z,74.60
2022-12-07T09:19:28.948Z,74.60
2022-12-07T09:20:28.897Z,73.32
2022-12-07T09:21:28.829Z,73.96
2022-12-07T09:22:28.788Z,74.28
2022-12-07T09:23:28.787Z,76.05
2022-12-07T09:24:28.790Z,77.18
2022-12-07T09:25:28.760Z,73.15
2022-12-07T09:26:28.759Z,73.32
2022-12-07T09:27:28.779Z,72.83
2022-12-07T09:28:28.726Z,73.15
2022-12-07T09:29:29.744Z,72.99
2022-12-07T09:30:28.725Z,72.51
2022-12-07T09:31:28.789Z,73.80
2022-12-07T09:32:28.723Z,73.32
2022-12-07T09:33:28.685Z,73.48
2022-12-07T09:34:28.760Z,74.60
2022-12-07T09:35:28.653Z,75.73
2022-12-07T09:36:28.660Z,74.77
2022-12-07T09:37:28.639Z,75.25
2022-12-07T09:38:28.630Z,73.80
2022-12-07T09:39:28.634Z,72.35
2022-12-07T09:40:28.609Z,73.48
2022-12-07T09:41:28.621Z,75.41
2022-12-07T09:42:28.662Z,75.25
2022-12-07T09:43:28.589Z,74.93
2022-12-07T09:44:28.584Z,75.41
2022-12-07T09:45:28.564Z,76.86
2022-12-07T09:46:28.597Z,73.80
2022-12-07T09:47:28.554Z,74.77
2022-12-07T09:48:28.524Z,75.57
2022-12-07T09:49:28.542Z,74.28
2022-12-07T09:50:28.514Z,74.93
2022-12-07T09:51:28.500Z,73.96
2022-12-07T09:52:28.482Z,73.64
2022-12-07T09:53:28.477Z,75.41
2022-12-07T09:54:28.493Z,75.89
2022-12-07T09:55:28.451Z,76.38
2022-12-07T09:56:28.444Z,74.77
2022-12-07T09:57:28.427Z,74.28
2022-12-07T09:58:28.429Z,73.80
2022-12-07T09:59:32.366Z,74.44
2022-12-07T10:00:29.397Z,74.93
2022-12-07T10:01:28.464Z,73.64
2022-12-07T10:02:28.381Z,73.48
2022-12-07T10:03:28.373Z,74.93
2022-12-07T10:04:28.410Z,74.28
2022-12-07T10:05:28.393Z,75.09
2022-12-07T10:06:28.338Z,76.22
2022-12-07T10:07:28.323Z,73.15
2022-12-07T10:08:28.393Z,75.09
2022-12-07T10:09:28.319Z,73.48
2022-12-07T10:10:28.291Z,72.35
2022-12-07T10:11:28.306Z,73.15
2022-12-07T10:12:28.274Z,73.64
2022-12-07T10:13:28.249Z,73.80
2022-12-07T10:14:44.218Z,73.96
2022-12-07T10:15:30.241Z,74.60
2022-12-07T10:16:28.308Z,74.28
2022-12-07T10:17:28.217Z,75.41
2022-12-07T10:18:28.201Z,75.73
2022-12-07T10:19:28.220Z,75.73
2022-12-07T10:20:28.185Z,75.09
2022-12-07T10:21:28.168Z,74.93
2022-12-07T10:22:31.827Z,76.54
2022-12-07T10:23:29.155Z,75.73
2022-12-07T10:24:28.154Z,76.38
2022-12-07T10:25:28.127Z,76.86
2022-12-07T10:26:28.123Z,75.25
2022-12-07T10:27:28.101Z,76.05
2022-12-07T10:28:28.102Z,74.44
2022-12-07T10:29:28.110Z,73.96
2022-12-07T10:30:28.083Z,75.41
2022-12-07T10:31:28.096Z,76.38
2022-12-07T10:32:28.059Z,75.57
2022-12-07T10:33:28.035Z,75.25
2022-12-07T10:34:28.090Z,76.05
2022-12-07T10:35:28.022Z,76.70
2022-12-07T10:36:28.025Z,74.77
2022-12-07T10:37:27.998Z,75.09
2022-12-07T10:38:27.988Z,75.25
2022-12-07T10:39:27.996Z,77.18
2022-12-07T10:40:27.966Z,77.34
2022-12-07T10:41:27.984Z,76.05
2022-12-07T10:42:27.935Z,75.25
2022-12-07T10:43:27.972Z,76.70
2022-12-07T10:44:27.958Z,77.67
2022-12-07T10:45:27.940Z,75.89
2022-12-07T10:46:28.023Z,75.41
2022-12-07T10:47:27.972Z,75.09
2022-12-07T10:48:27.873Z,74.28
2022-12-07T10:49:27.894Z,75.73
2022-12-07T10:50:27.883Z,75.57
2022-12-07T10:51:27.846Z,75.73
2022-12-07T10:52:27.843Z,74.77
2022-12-07T10:53:27.832Z,76.86
2022-12-07T10:54:27.838Z,76.22
2022-12-07T10:55:27.800Z,75.57
2022-12-07T10:56:27.785Z,74.44
2022-12-07T10:57:27.774Z,74.77
2022-12-07T10:58:27.759Z,75.57
2022-12-07T10:59:27.775Z,74.12
2022-12-07T11:00:27.839Z,75.25
2022-12-07T11:01:27.813Z,76.54
2022-12-07T11:02:27.801Z,75.09
2022-12-07T11:03:27.711Z,76.05
2022-12-07T11:04:27.723Z,75.73
2022-12-07T11:05:27.703Z,74.44
2022-12-07T11:06:27.696Z,74.44
2022-12-07T11:07:27.667Z,76.22
2022-12-07T11:08:27.755Z,75.89
2022-12-07T11:09:59.560Z,73.64
2022-12-07T11:10:29.632Z,74.28
2022-12-07T11:11:27.645Z,74.77
2022-12-07T11:12:27.614Z,75.25
2022-12-07T11:13:29.059Z,74.77
2022-12-07T11:14:28.627Z,76.38
2022-12-07T11:15:27.589Z,75.73
2022-12-07T11:16:27.678Z,75.25
2022-12-07T11:17:27.554Z,75.89
2022-12-07T11:18:27.537Z,76.86
2022-12-07T11:19:28.563Z,75.89
2022-12-07T11:20:28.662Z,74.44
2022-12-07T11:21:27.497Z,74.12
2022-12-07T11:22:27.496Z,73.64
2022-12-07T11:23:27.497Z,76.38
2022-12-07T11:24:27.494Z,75.73
2022-12-07T11:25:29.024Z,76.70
2022-12-07T11:26:27.447Z,76.70
2022-12-07T11:27:27.446Z,75.73
2022-12-07T11:28:27.435Z,76.54
2022-12-07T11:29:27.427Z,73.96
2022-12-07T11:30:27.403Z,75.25
2022-12-07T11:31:29.443Z,75.73
2022-12-07T11:32:28.523Z,74.28
2022-12-07T11:33:27.374Z,76.22
2022-12-07T11:34:27.360Z,76.86
2022-12-07T11:35:27.393Z,76.38
2022-12-07T11:36:27.339Z,77.83
2022-12-07T11:37:27.331Z,77.83
2022-12-07T11:38:28.402Z,75.41
2022-12-07T11:39:27.308Z,74.28
2022-12-07T11:40:27.318Z,76.54
2022-12-07T11:41:27.292Z,77.83
2022-12-07T11:42:27.281Z,76.86
2022-12-07T11:43:27.275Z,76.05
2022-12-07T11:44:27.747Z,78.47
2022-12-07T11:45:28.385Z,77.18
2022-12-07T11:46:27.283Z,75.89
2022-12-07T11:47:27.228Z,74.93
2022-12-07T11:48:27.215Z,74.77
2022-12-07T11:49:27.206Z,74.44
2022-12-07T11:50:27.206Z,75.41
2022-12-07T11:51:33.197Z,74.93
2022-12-07T11:52:29.166Z,76.05
2022-12-07T11:53:27.160Z,76.22
2022-12-07T11:54:27.142Z,76.38
2022-12-07T11:55:27.148Z,76.54
2022-12-07T11:56:27.120Z,74.77
2022-12-07T11:57:27.106Z,75.25
2022-12-07T11:58:27.098Z,74.60
2022-12-07T11:59:27.086Z,75.57
2022-12-07T12:00:27.100Z,77.18
2022-12-07T12:01:27.063Z,74.28
2022-12-07T12:02:27.090Z,75.25
2022-12-07T12:03:27.088Z,75.73
2022-12-07T12:04:27.032Z,76.38
2022-12-07T12:05:27.041Z,75.41
2022-12-07T12:06:27.016Z,75.41
2022-12-07T12:09:46.667Z,74.93
2022-12-07T12:10:32.358Z,75.89
2022-12-07T12:15:27.979Z,74.77
2022-12-07T12:16:27.014Z,74.12
2022-12-07T12:17:26.941Z,75.09
2022-12-07T12:18:26.887Z,74.93
2022-12-07T12:19:26.869Z,74.93
2022-12-07T12:20:27.970Z,73.96
2022-12-07T12:21:26.841Z,74.28
2022-12-07T12:22:26.841Z,74.28
2022-12-07T12:23:26.837Z,73.48
2022-12-07T12:24:26.819Z,73.64
2022-12-07T12:25:26.813Z,74.77
2022-12-07T12:26:26.901Z,75.25
2022-12-07T12:27:26.823Z,74.28
2022-12-07T12:28:26.824Z,72.35
2022-12-07T12:29:26.751Z,74.44
2022-12-07T12:30:27.631Z,74.93
2022-12-07T12:31:26.775Z,76.38
2022-12-07T12:32:26.762Z,73.80
2022-12-07T12:33:26.714Z,74.77
2022-12-07T12:34:26.710Z,75.41
2022-12-07T12:35:26.713Z,74.60
2022-12-07T12:36:26.790Z,73.80
2022-12-07T12:37:26.658Z,72.67
2022-12-07T12:38:26.670Z,74.44
2022-12-07T12:39:26.662Z,72.67
2022-12-07T12:40:26.649Z,73.48
2022-12-07T12:41:26.629Z,74.60
2022-12-07T12:42:26.619Z,73.64
2022-12-07T12:43:26.610Z,74.77
2022-12-07T12:44:26.596Z,73.64
2022-12-07T12:45:26.594Z,74.44
2022-12-07T12:46:26.621Z,75.73
2022-12-07T12:47:26.564Z,77.67
2022-12-07T12:48:26.561Z,76.22
2022-12-07T12:49:26.557Z,73.32
2022-12-07T12:50:26.554Z,74.77
2022-12-07T12:51:26.534Z,75.73
2022-12-07T12:52:26.511Z,76.38
2022-12-07T12:53:26.504Z,77.67
2022-12-07T12:54:26.521Z,76.86
2022-12-07T12:55:26.498Z,76.05
2022-12-07T12:56:26.461Z,76.05
2022-12-07T12:57:26.454Z,75.73
2022-12-07T12:58:26.442Z,75.57